^^
Station Historical Data
Daily Summary for May 18, 2018 Units:  English    Metric   Both
« Previous Day
Next Day »
Daily Weekly Monthly Yearly Custom
  High: Low: Average:
Temperature: 59.6 °F 46.1 °F 49.5 °F
Dew Point: 55.6 °F 42.9 °F 47.1 °F
Humidity: 96% 86% 92%
Wind Speed: 23.0mph 1.0mph 11.8mph
Wind Gust: 30.0mph - -
Wind- - SSE
Pressure: 30.14 in 29.78 in -
Precipitation: 0.39 in    
Historical Graphs
 
 
Tabular Data for May 18, 2018
Time Temperature Dew Point Pressure Wind Wind Speed Wind Gust Humidity Rainfall Rate (Hourly) solar Conditions
00:04 59.4 °F 55.5 °F 29.81 in SSE 1.0 mph 11.0 mph 87% 0.00 in 0 W/m2
00:09 59.5 °F 55.6 °F 29.81 in ENE 8.0 mph 10.0 mph 87% 0.00 in 0 W/m2
00:14 59.6 °F 55.4 °F 29.81 in ENE 5.0 mph 11.0 mph 86% 0.00 in 0 W/m2
00:19 59.4 °F 55.5 °F 29.81 in NE 4.0 mph 11.0 mph 87% 0.00 in 0 W/m2
00:24 59.0 °F 55.1 °F 29.81 in NE 11.0 mph 11.0 mph 87% 0.00 in 0 W/m2
00:29 58.0 °F 54.2 °F 29.81 in ENE 10.0 mph 14.0 mph 87% 0.00 in 0 W/m2
00:34 57.3 °F 53.8 °F 29.81 in NE 10.0 mph 15.0 mph 88% 0.00 in 0 W/m2
00:39 57.1 °F 53.9 °F 29.81 in NE 4.0 mph 15.0 mph 89% 0.00 in 0 W/m2
00:44 57.0 °F 53.8 °F 29.82 in NE 4.0 mph 10.0 mph 89% 0.00 in 0 W/m2
00:49 56.9 °F 53.7 °F 29.82 in NNE 9.0 mph 10.0 mph 89% 0.00 in 0 W/m2
00:54 57.0 °F 53.8 °F 29.82 in NE 8.0 mph 12.0 mph 89% 0.00 in 0 W/m2
00:59 56.9 °F 53.7 °F 29.82 in NE 8.0 mph 12.0 mph 89% 0.00 in 0 W/m2
01:04 56.8 °F 53.6 °F 29.82 in NE 6.0 mph 11.0 mph 89% 0.00 in 0 W/m2
01:09 56.6 °F 53.4 °F 29.81 in NNE 8.0 mph 11.0 mph 89% 0.00 in 0 W/m2
01:14 56.4 °F 53.2 °F 29.81 in NNE 6.0 mph 11.0 mph 89% 0.00 in 0 W/m2
01:19 56.1 °F 53.2 °F 29.81 in NNE 8.0 mph 11.0 mph 90% 0.00 in 0 W/m2
01:24 55.5 °F 52.6 °F 29.80 in NNE 11.0 mph 15.0 mph 90% 0.00 in 0 W/m2
01:29 55.0 °F 52.1 °F 29.80 in NNE 8.0 mph 15.0 mph 90% 0.00 in 0 W/m2
01:34 54.7 °F 52.1 °F 29.80 in NE 7.0 mph 14.0 mph 91% 0.00 in 0 W/m2
01:39 54.5 °F 51.9 °F 29.80 in NE 10.0 mph 13.0 mph 91% 0.00 in 0 W/m2
01:44 54.4 °F 52.1 °F 29.80 in NE 11.0 mph 14.0 mph 92% 0.00 in 0 W/m2
01:49 54.3 °F 52.0 °F 29.80 in NE 11.0 mph 14.0 mph 92% 0.00 in 0 W/m2
01:54 54.2 °F 51.9 °F 29.80 in NE 6.0 mph 15.0 mph 92% 0.00 in 0 W/m2
01:59 54.0 °F 51.7 °F 29.81 in NE 12.0 mph 15.0 mph 92% 0.00 in 0 W/m2
02:04 53.9 °F 51.6 °F 29.81 in NNE 13.0 mph 16.0 mph 92% 0.00 in 0 W/m2
02:09 53.7 °F 51.7 °F 29.80 in NE 12.0 mph 16.0 mph 93% 0.00 in 0 W/m2
02:14 53.6 °F 51.6 °F 29.81 in NE 9.0 mph 16.0 mph 93% 0.00 in 0 W/m2
02:19 53.5 °F 51.5 °F 29.80 in ENE 15.0 mph 16.0 mph 93% 0.00 in 0 W/m2
02:24 53.4 °F 51.4 °F 29.80 in NE 12.0 mph 16.0 mph 93% 0.00 in 0 W/m2
02:29 53.4 °F 51.4 °F 29.79 in NE 9.0 mph 16.0 mph 93% 0.00 in 0 W/m2
02:34 53.3 °F 51.6 °F 29.80 in East 10.0 mph 15.0 mph 94% 0.00 in 0 W/m2
02:39 53.3 °F 51.6 °F 29.79 in ENE 18.0 mph 18.0 mph 94% 0.00 in 0 W/m2
02:44 53.2 °F 51.5 °F 29.79 in NE 12.0 mph 18.0 mph 94% 0.00 in 0 W/m2
02:49 53.2 °F 51.5 °F 29.79 in NE 11.0 mph 18.0 mph 94% 0.00 in 0 W/m2
02:54 53.2 °F 51.5 °F 29.78 in NE 8.0 mph 17.0 mph 94% 0.00 in 0 W/m2
02:59 53.0 °F 51.3 °F 29.78 in NE 11.0 mph 17.0 mph 94% 0.00 in 0 W/m2
03:04 52.9 °F 51.2 °F 29.78 in NE 7.0 mph 14.0 mph 94% 0.00 in 0 W/m2
03:09 52.7 °F 51.0 °F 29.78 in ENE 5.0 mph 13.0 mph 94% 0.00 in 0 W/m2
03:14 52.6 °F 50.9 °F 29.79 in SE 2.0 mph 11.0 mph 94% 0.00 in 0 W/m2
03:19 52.6 °F 50.9 °F 29.79 in ENE 3.0 mph 7.0 mph 94% 0.00 in 0 W/m2
03:24 52.5 °F 50.8 °F 29.80 in ENE 3.0 mph 10.0 mph 94% 0.00 in 0 W/m2
03:29 52.4 °F 50.7 °F 29.80 in NNE 3.0 mph 10.0 mph 94% 0.00 in 0 W/m2
03:34 52.4 °F 50.7 °F 29.80 in ENE 3.0 mph 12.0 mph 94% 0.00 in 0 W/m2
03:39 52.3 °F 50.6 °F 29.80 in North 1.0 mph 12.0 mph 94% 0.00 in 0 W/m2
03:44 52.3 °F 50.9 °F 29.81 in NE 7.0 mph 9.0 mph 95% 0.00 in 0 W/m2
03:49 52.2 °F 50.8 °F 29.81 in NNE 2.0 mph 9.0 mph 95% 0.00 in 0 W/m2
03:54 52.2 °F 50.8 °F 29.81 in North 4.0 mph 8.0 mph 95% 0.00 in 0 W/m2
03:59 52.2 °F 50.8 °F 29.81 in North 4.0 mph 6.0 mph 95% 0.00 in 0 W/m2
04:04 52.2 °F 50.8 °F 29.80 in NNW 4.0 mph 8.0 mph 95% 0.00 in 0 W/m2
04:09 52.2 °F 50.8 °F 29.80 in NW 4.0 mph 8.0 mph 95% 0.00 in 0 W/m2
04:14 52.1 °F 50.7 °F 29.80 in NNE 6.0 mph 7.0 mph 95% 0.00 in 0 W/m2
04:19 52.1 °F 50.7 °F 29.80 in North 6.0 mph 10.0 mph 95% 0.00 in 0 W/m2
04:24 51.9 °F 50.5 °F 29.80 in NW 4.0 mph 10.0 mph 95% 0.00 in 0 W/m2
04:29 51.8 °F 50.4 °F 29.80 in NW 3.0 mph 7.0 mph 95% 0.00 in 0 W/m2
04:34 51.7 °F 50.3 °F 29.80 in NNW 7.0 mph 8.0 mph 95% 0.00 in 0 W/m2
04:39 51.7 °F 50.3 °F 29.79 in NNW 8.0 mph 11.0 mph 95% 0.00 in 0 W/m2
04:44 51.6 °F 50.2 °F 29.80 in NNW 5.0 mph 11.0 mph 95% 0.00 in 0 W/m2
04:49 51.7 °F 50.3 °F 29.80 in NNW 6.0 mph 11.0 mph 95% 0.00 in 0 W/m2
04:54 51.7 °F 50.3 °F 29.80 in North 8.0 mph 11.0 mph 95% 0.00 in 0 W/m2
04:59 51.7 °F 50.3 °F 29.79 in NNW 8.0 mph 12.0 mph 95% 0.00 in 0 W/m2
05:04 51.6 °F 50.2 °F 29.79 in NNW 13.0 mph 13.0 mph 95% 0.00 in 0 W/m2
05:09 51.6 °F 50.2 °F 29.79 in NW 11.0 mph 14.0 mph 95% 0.00 in 0 W/m2
05:14 51.5 °F 50.1 °F 29.79 in NNW 6.0 mph 14.0 mph 95% 0.00 in 0 W/m2
05:19 51.4 °F 50.0 °F 29.79 in North 8.0 mph 12.0 mph 95% 0.00 in 0 W/m2
05:24 51.4 °F 50.0 °F 29.78 in NNE 9.0 mph 13.0 mph 95% 0.00 in 0 W/m2
05:29 51.3 °F 49.9 °F 29.79 in NNW 7.0 mph 13.0 mph 95% 0.01 in 0 W/m2
05:34 51.3 °F 49.9 °F 29.79 in North 10.0 mph 14.0 mph 95% 0.02 in 0 W/m2
05:39 51.1 °F 49.7 °F 29.78 in North 9.0 mph 14.0 mph 95% 0.03 in 0 W/m2
05:44 51.1 °F 49.7 °F 29.78 in North 9.0 mph 16.0 mph 95% 0.03 in 0 W/m2
05:49 51.0 °F 49.6 °F 29.79 in North 5.0 mph 16.0 mph 95% 0.03 in 0 W/m2
05:54 50.9 °F 49.5 °F 29.79 in NNW 6.0 mph 14.0 mph 95% 0.04 in 0 W/m2
05:59 50.7 °F 49.3 °F 29.79 in NNE 8.0 mph 14.0 mph 95% 0.04 in 0 W/m2
06:04 50.5 °F 49.1 °F 29.80 in North 8.0 mph 14.0 mph 95% 0.05 in 0 W/m2
06:09 50.4 °F 49.0 °F 29.80 in NNE 7.0 mph 11.0 mph 95% 0.05 in 0 W/m2
06:14 50.3 °F 48.9 °F 29.80 in NNE 8.0 mph 13.0 mph 95% 0.05 in 0 W/m2
06:19 50.2 °F 48.8 °F 29.80 in North 8.0 mph 16.0 mph 95% 0.06 in 0 W/m2
06:24 50.0 °F 48.6 °F 29.80 in NNW 10.0 mph 16.0 mph 95% 0.06 in 0 W/m2
06:29 50.0 °F 48.6 °F 29.81 in NNW 5.0 mph 11.0 mph 95% 0.07 in 0 W/m2
06:34 49.9 °F 48.5 °F 29.81 in North 4.0 mph 10.0 mph 95% 0.06 in 0 W/m2
06:39 49.9 °F 48.5 °F 29.82 in North 8.0 mph 11.0 mph 95% 0.06 in 0 W/m2
06:44 49.8 °F 48.4 °F 29.81 in North 15.0 mph 15.0 mph 95% 0.07 in 0 W/m2
06:49 49.7 °F 48.3 °F 29.81 in NNE 9.0 mph 15.0 mph 95% 0.08 in 5 W/m2
06:54 49.6 °F 48.2 °F 29.81 in NNW 7.0 mph 15.0 mph 95% 0.08 in 7 W/m2
07:00 49.5 °F 48.1 °F 29.81 in North 7.0 mph 15.0 mph 95% 0.09 in 7 W/m2
07:05 49.3 °F 47.9 °F 29.82 in NNW 9.0 mph 14.0 mph 95% 0.10 in 7 W/m2
07:10 49.3 °F 47.9 °F 29.82 in NNW 11.0 mph 13.0 mph 95% 0.10 in 7 W/m2
07:15 49.2 °F 47.8 °F 29.82 in NNW 10.0 mph 13.0 mph 95% 0.11 in 9 W/m2
07:20 49.1 °F 47.7 °F 29.82 in NNW 10.0 mph 13.0 mph 95% 0.11 in 9 W/m2
07:25 49.0 °F 47.6 °F 29.82 in NNW 10.0 mph 15.0 mph 95% 0.13 in 7 W/m2
07:30 49.0 °F 47.9 °F 29.82 in North 16.0 mph 16.0 mph 96% 0.14 in 11 W/m2
07:35 48.9 °F 47.8 °F 29.82 in North 15.0 mph 16.0 mph 96% 0.15 in 12 W/m2
07:40 48.9 °F 47.8 °F 29.82 in North 15.0 mph 16.0 mph 96% 0.17 in 12 W/m2
07:45 48.8 °F 47.7 °F 29.82 in North 9.0 mph 15.0 mph 96% 0.16 in 14 W/m2
07:50 48.7 °F 47.3 °F 29.82 in North 12.0 mph 15.0 mph 95% 0.18 in 14 W/m2
07:55 48.7 °F 47.6 °F 29.82 in NNW 11.0 mph 17.0 mph 96% 0.16 in 18 W/m2
08:00 48.6 °F 47.5 °F 29.82 in NNW 9.0 mph 17.0 mph 96% 0.16 in 18 W/m2
08:05 48.6 °F 47.5 °F 29.82 in NNW 7.0 mph 16.0 mph 96% 0.16 in 28 W/m2
08:10 48.6 °F 47.5 °F 29.82 in North 11.0 mph 14.0 mph 96% 0.15 in 37 W/m2
08:15 48.5 °F 47.4 °F 29.82 in North 11.0 mph 16.0 mph 96% 0.15 in 44 W/m2
08:20 48.3 °F 47.2 °F 29.83 in North 11.0 mph 16.0 mph 96% 0.14 in 40 W/m2
08:25 48.2 °F 47.1 °F 29.83 in NW 10.0 mph 16.0 mph 96% 0.13 in 60 W/m2
08:30 47.9 °F 46.5 °F 29.83 in North 8.0 mph 17.0 mph 95% 0.11 in 53 W/m2
08:35 47.7 °F 46.6 °F 29.83 in North 13.0 mph 19.0 mph 96% 0.09 in 51 W/m2
08:40 47.6 °F 46.5 °F 29.83 in North 11.0 mph 19.0 mph 96% 0.07 in 77 W/m2
08:45 47.8 °F 46.7 °F 29.83 in North 12.0 mph 17.0 mph 96% 0.07 in 100 W/m2
08:50 48.0 °F 46.9 °F 29.83 in North 10.0 mph 17.0 mph 96% 0.05 in 86 W/m2
08:55 48.1 °F 47.0 °F 29.83 in North 10.0 mph 17.0 mph 96% 0.05 in 86 W/m2
09:00 48.2 °F 47.1 °F 29.83 in NNE 12.0 mph 16.0 mph 96% 0.04 in 91 W/m2
09:05 48.3 °F 47.2 °F 29.84 in North 18.0 mph 21.0 mph 96% 0.04 in 84 W/m2
09:10 47.9 °F 46.8 °F 29.84 in North 13.0 mph 22.0 mph 96% 0.04 in 56 W/m2
09:15 47.9 °F 46.8 °F 29.84 in NNW 12.0 mph 22.0 mph 96% 0.03 in 60 W/m2
09:20 47.7 °F 46.6 °F 29.84 in North 13.0 mph 18.0 mph 96% 0.03 in 49 W/m2
09:25 47.8 °F 46.7 °F 29.84 in North 15.0 mph 18.0 mph 96% 0.02 in 65 W/m2
09:30 47.7 °F 46.6 °F 29.84 in NNW 11.0 mph 20.0 mph 96% 0.02 in 67 W/m2
09:35 47.7 °F 46.6 °F 29.85 in North 11.0 mph 20.0 mph 96% 0.01 in 74 W/m2
09:40 47.6 °F 46.5 °F 29.84 in North 13.0 mph 20.0 mph 96% 0.01 in 74 W/m2
09:45 47.6 °F 46.5 °F 29.84 in NNE 16.0 mph 20.0 mph 96% 0.01 in 91 W/m2
09:50 47.3 °F 45.9 °F 29.84 in NNE 14.0 mph 21.0 mph 95% 0.01 in 100 W/m2
09:54 47.4 °F 46.0 °F 29.84 in North 15.0 mph 21.0 mph 95% 0.02 in 111 W/m2
09:59 47.5 °F 46.4 °F 29.84 in North 12.0 mph 19.0 mph 96% 0.02 in 104 W/m2
10:04 47.6 °F 46.5 °F 29.83 in NNE 16.0 mph 21.0 mph 96% 0.01 in 153 W/m2
10:09 47.6 °F 46.5 °F 29.84 in NNE 16.0 mph 25.0 mph 96% 0.02 in 193 W/m2
10:14 47.7 °F 46.6 °F 29.84 in NNE 15.0 mph 25.0 mph 96% 0.02 in 156 W/m2
10:19 47.8 °F 46.7 °F 29.84 in North 12.0 mph 20.0 mph 96% 0.02 in 185 W/m2
10:24 48.0 °F 46.6 °F 29.84 in NNE 14.0 mph 20.0 mph 95% 0.02 in 169 W/m2
10:29 47.9 °F 46.5 °F 29.85 in NNE 10.0 mph 18.0 mph 95% 0.02 in 146 W/m2
10:34 47.8 °F 46.4 °F 29.85 in NNE 15.0 mph 20.0 mph 95% 0.02 in 118 W/m2
10:39 47.8 °F 46.4 °F 29.85 in NNE 13.0 mph 20.0 mph 95% 0.02 in 118 W/m2
10:44 47.7 °F 46.3 °F 29.86 in NNE 10.0 mph 18.0 mph 95% 0.02 in 84 W/m2
10:49 47.6 °F 46.2 °F 29.86 in North 14.0 mph 18.0 mph 95% 0.02 in 67 W/m2
10:54 47.4 °F 46.0 °F 29.87 in North 10.0 mph 18.0 mph 95% 0.01 in 56 W/m2
10:59 47.5 °F 46.1 °F 29.88 in North 8.0 mph 15.0 mph 95% 0.01 in 42 W/m2
11:04 47.3 °F 45.9 °F 29.88 in North 12.0 mph 15.0 mph 95% 0.01 in 37 W/m2
11:09 47.0 °F 45.6 °F 29.88 in North 9.0 mph 16.0 mph 95% 0.00 in 56 W/m2
11:14 47.1 °F 45.7 °F 29.88 in North 12.0 mph 16.0 mph 95% 0.00 in 67 W/m2
11:19 47.1 °F 45.7 °F 29.88 in North 14.0 mph 16.0 mph 95% 0.00 in 83 W/m2
11:24 47.2 °F 45.8 °F 29.88 in NNE 13.0 mph 16.0 mph 95% 0.01 in 100 W/m2
11:29 47.3 °F 45.9 °F 29.88 in North 14.0 mph 17.0 mph 95% 0.01 in 125 W/m2
11:34 47.3 °F 45.9 °F 29.88 in North 12.0 mph 19.0 mph 95% 0.01 in 195 W/m2
11:39 47.6 °F 46.2 °F 29.88 in North 17.0 mph 20.0 mph 95% 0.01 in 207 W/m2
11:44 47.9 °F 46.5 °F 29.88 in North 13.0 mph 20.0 mph 95% 0.01 in 323 W/m2
11:49 48.4 °F 47.0 °F 29.89 in North 13.0 mph 19.0 mph 95% 0.02 in 288 W/m2
11:54 48.2 °F 46.8 °F 29.89 in North 14.0 mph 18.0 mph 95% 0.02 in 178 W/m2
11:59 48.2 °F 46.6 °F 29.89 in NNE 18.0 mph 22.0 mph 94% 0.02 in 267 W/m2
12:04 48.3 °F 46.7 °F 29.90 in North 9.0 mph 22.0 mph 94% 0.02 in 176 W/m2
12:09 48.0 °F 46.4 °F 29.91 in NNW 16.0 mph 19.0 mph 94% 0.02 in 169 W/m2
12:14 47.6 °F 46.0 °F 29.91 in NNW 15.0 mph 19.0 mph 94% 0.02 in 209 W/m2
12:19 47.8 °F 46.2 °F 29.91 in NNW 7.0 mph 19.0 mph 94% 0.01 in 236 W/m2
12:24 47.9 °F 46.3 °F 29.91 in NNW 15.0 mph 19.0 mph 94% 0.01 in 155 W/m2
12:29 47.9 °F 46.0 °F 29.91 in North 14.0 mph 19.0 mph 93% 0.01 in 185 W/m2
12:34 47.7 °F 45.8 °F 29.91 in North 16.0 mph 20.0 mph 93% 0.01 in 223 W/m2
12:39 47.7 °F 45.8 °F 29.92 in NNW 12.0 mph 20.0 mph 93% 0.01 in 167 W/m2
12:44 47.7 °F 45.8 °F 29.91 in North 10.0 mph 20.0 mph 93% 0.01 in 199 W/m2
12:49 47.7 °F 45.8 °F 29.91 in North 14.0 mph 22.0 mph 93% 0.00 in 246 W/m2
12:54 47.4 °F 45.2 °F 29.91 in North 18.0 mph 22.0 mph 92% 0.00 in 181 W/m2
12:59 47.4 °F 45.2 °F 29.91 in North 11.0 mph 21.0 mph 92% 0.00 in 172 W/m2
13:04 47.6 °F 45.4 °F 29.92 in NNW 14.0 mph 20.0 mph 92% 0.00 in 172 W/m2
13:09 47.6 °F 45.4 °F 29.92 in North 16.0 mph 20.0 mph 92% 0.00 in 174 W/m2
13:14 47.5 °F 45.3 °F 29.91 in North 14.0 mph 20.0 mph 92% 0.00 in 197 W/m2
13:19 47.5 °F 45.3 °F 29.91 in North 17.0 mph 23.0 mph 92% 0.00 in 192 W/m2
13:24 47.5 °F 45.3 °F 29.91 in North 15.0 mph 26.0 mph 92% 0.00 in 202 W/m2
13:29 47.7 °F 45.5 °F 29.92 in NNE 16.0 mph 26.0 mph 92% 0.00 in 241 W/m2
13:34 48.2 °F 46.0 °F 29.92 in North 15.0 mph 24.0 mph 92% 0.00 in 204 W/m2
13:39 48.2 °F 46.0 °F 29.92 in NNW 16.0 mph 20.0 mph 92% 0.00 in 237 W/m2
13:44 48.2 °F 45.7 °F 29.92 in NNE 16.0 mph 20.0 mph 91% 0.00 in 213 W/m2
13:49 48.4 °F 45.9 °F 29.93 in NNE 14.0 mph 21.0 mph 91% 0.00 in 248 W/m2
13:54 48.7 °F 46.2 °F 29.93 in North 10.0 mph 21.0 mph 91% 0.00 in 207 W/m2
13:59 48.8 °F 46.3 °F 29.94 in North 16.0 mph 20.0 mph 91% 0.00 in 158 W/m2
14:04 48.4 °F 45.6 °F 29.94 in NNE 17.0 mph 21.0 mph 90% 0.00 in 225 W/m2
14:09 48.6 °F 45.8 °F 29.94 in NNW 13.0 mph 21.0 mph 90% 0.00 in 167 W/m2
14:14 48.4 °F 45.6 °F 29.94 in North 8.0 mph 19.0 mph 90% 0.00 in 141 W/m2
14:19 48.3 °F 45.2 °F 29.95 in North 7.0 mph 20.0 mph 89% 0.00 in 183 W/m2
14:24 48.5 °F 45.7 °F 29.95 in NNW 13.0 mph 20.0 mph 90% 0.00 in 162 W/m2
14:29 48.4 °F 45.3 °F 29.95 in NW 15.0 mph 19.0 mph 89% 0.00 in 188 W/m2
14:34 48.5 °F 45.7 °F 29.95 in North 9.0 mph 17.0 mph 90% 0.00 in 179 W/m2
14:39 48.7 °F 45.9 °F 29.95 in North 14.0 mph 18.0 mph 90% 0.00 in 195 W/m2
14:44 48.6 °F 45.5 °F 29.95 in NNW 13.0 mph 19.0 mph 89% 0.00 in 204 W/m2
14:49 48.7 °F 45.6 °F 29.95 in NNW 17.0 mph 19.0 mph 89% 0.00 in 174 W/m2
14:54 48.8 °F 45.7 °F 29.95 in NNE 16.0 mph 22.0 mph 89% 0.00 in 181 W/m2
14:59 48.9 °F 45.8 °F 29.95 in North 18.0 mph 22.0 mph 89% 0.00 in 178 W/m2
15:04 48.9 °F 45.8 °F 29.95 in North 16.0 mph 21.0 mph 89% 0.00 in 169 W/m2
15:09 48.9 °F 45.8 °F 29.96 in North 13.0 mph 21.0 mph 89% 0.00 in 169 W/m2
15:14 48.9 °F 45.8 °F 29.95 in North 13.0 mph 20.0 mph 89% 0.00 in 199 W/m2
15:19 49.1 °F 45.7 °F 29.96 in North 16.0 mph 20.0 mph 88% 0.00 in 171 W/m2
15:24 49.2 °F 46.1 °F 29.96 in North 14.0 mph 20.0 mph 89% 0.00 in 176 W/m2
15:29 49.3 °F 45.9 °F 29.96 in North 12.0 mph 18.0 mph 88% 0.00 in 174 W/m2
15:34 49.4 °F 46.0 °F 29.97 in North 15.0 mph 19.0 mph 88% 0.00 in 207 W/m2
15:39 49.4 °F 46.0 °F 29.97 in NNE 16.0 mph 21.0 mph 88% 0.00 in 183 W/m2
15:44 49.2 °F 45.5 °F 29.97 in North 12.0 mph 21.0 mph 87% 0.00 in 130 W/m2
15:49 49.1 °F 45.7 °F 29.97 in North 17.0 mph 21.0 mph 88% 0.00 in 160 W/m2
15:54 48.9 °F 45.5 °F 29.97 in North 16.0 mph 19.0 mph 88% 0.00 in 163 W/m2
15:59 48.7 °F 45.3 °F 29.97 in NNW 11.0 mph 21.0 mph 88% 0.00 in 137 W/m2
16:04 48.6 °F 45.2 °F 29.97 in North 13.0 mph 21.0 mph 88% 0.00 in 130 W/m2
16:09 48.4 °F 45.0 °F 29.98 in North 13.0 mph 20.0 mph 88% 0.00 in 111 W/m2
16:14 48.1 °F 44.7 °F 29.98 in North 12.0 mph 20.0 mph 88% 0.00 in 113 W/m2
16:19 48.2 °F 45.1 °F 29.98 in NNE 9.0 mph 21.0 mph 89% 0.00 in 105 W/m2
16:24 48.1 °F 44.7 °F 29.98 in North 19.0 mph 21.0 mph 88% 0.00 in 97 W/m2
16:29 48.0 °F 44.9 °F 29.98 in NNE 16.0 mph 22.0 mph 89% 0.00 in 100 W/m2
16:34 48.0 °F 44.9 °F 29.99 in NNE 14.0 mph 22.0 mph 89% 0.00 in 148 W/m2
16:39 47.9 °F 44.8 °F 29.99 in NNE 12.0 mph 22.0 mph 89% 0.00 in 139 W/m2
16:44 48.0 °F 44.9 °F 29.99 in NNW 12.0 mph 21.0 mph 89% 0.00 in 118 W/m2
16:49 48.2 °F 45.1 °F 29.99 in NNW 11.0 mph 20.0 mph 89% 0.00 in 114 W/m2
16:54 48.2 °F 45.1 °F 29.99 in NNE 16.0 mph 21.0 mph 89% 0.00 in 137 W/m2
16:59 48.3 °F 44.9 °F 29.99 in North 14.0 mph 21.0 mph 88% 0.00 in 125 W/m2
17:04 48.4 °F 45.0 °F 29.99 in North 18.0 mph 20.0 mph 88% 0.00 in 132 W/m2
17:09 48.4 °F 45.0 °F 29.99 in North 11.0 mph 20.0 mph 88% 0.00 in 114 W/m2
17:14 48.6 °F 45.2 °F 29.99 in NNE 15.0 mph 20.0 mph 88% 0.00 in 104 W/m2
17:19 48.5 °F 45.1 °F 29.99 in North 14.0 mph 19.0 mph 88% 0.00 in 130 W/m2
17:24 48.4 °F 45.0 °F 29.99 in North 18.0 mph 22.0 mph 88% 0.00 in 132 W/m2
17:29 48.4 °F 45.3 °F 29.99 in North 17.0 mph 24.0 mph 89% 0.00 in 100 W/m2
17:34 48.2 °F 45.1 °F 29.99 in NNW 17.0 mph 24.0 mph 89% 0.00 in 104 W/m2
17:39 48.3 °F 45.2 °F 29.99 in North 14.0 mph 24.0 mph 89% 0.00 in 130 W/m2
17:44 48.2 °F 45.1 °F 29.99 in North 22.0 mph 24.0 mph 89% 0.00 in 118 W/m2
17:49 48.4 °F 45.3 °F 29.99 in North 21.0 mph 27.0 mph 89% 0.00 in 155 W/m2
17:54 48.6 °F 45.2 °F 29.99 in NNE 19.0 mph 27.0 mph 88% 0.00 in 111 W/m2
17:59 48.6 °F 44.9 °F 30.00 in NNE 17.0 mph 26.0 mph 87% 0.00 in 100 W/m2
18:04 48.8 °F 45.1 °F 30.00 in NNE 20.0 mph 24.0 mph 87% 0.00 in 74 W/m2
18:09 48.7 °F 45.0 °F 30.00 in NNE 18.0 mph 24.0 mph 87% 0.00 in 72 W/m2
18:14 48.6 °F 45.2 °F 30.00 in NNE 19.0 mph 24.0 mph 88% 0.00 in 76 W/m2
18:19 48.4 °F 45.0 °F 30.00 in NNW 18.0 mph 25.0 mph 88% 0.00 in 76 W/m2
18:24 48.2 °F 45.1 °F 30.00 in North 15.0 mph 25.0 mph 89% 0.00 in 60 W/m2
18:29 48.1 °F 45.0 °F 29.99 in NNW 14.0 mph 24.0 mph 89% 0.00 in 93 W/m2
18:34 48.2 °F 45.4 °F 30.00 in NNE 15.0 mph 24.0 mph 90% 0.00 in 81 W/m2
18:39 48.2 °F 45.1 °F 30.00 in NNE 15.0 mph 22.0 mph 89% 0.00 in 81 W/m2
18:44 48.4 °F 45.3 °F 30.00 in North 16.0 mph 21.0 mph 89% 0.00 in 56 W/m2
18:49 48.5 °F 45.4 °F 30.00 in NNE 14.0 mph 23.0 mph 89% 0.00 in 58 W/m2
18:54 48.5 °F 45.1 °F 30.01 in North 18.0 mph 23.0 mph 88% 0.00 in 77 W/m2
18:59 48.8 °F 45.7 °F 30.01 in North 11.0 mph 22.0 mph 89% 0.00 in 146 W/m2
19:04 48.9 °F 45.2 °F 30.01 in North 23.0 mph 23.0 mph 87% 0.00 in 70 W/m2
19:09 48.8 °F 45.1 °F 30.01 in NE 18.0 mph 25.0 mph 87% 0.00 in 65 W/m2
19:14 48.8 °F 45.1 °F 30.01 in NNE 13.0 mph 25.0 mph 87% 0.00 in 60 W/m2
19:19 48.7 °F 45.0 °F 30.01 in NNW 16.0 mph 24.0 mph 87% 0.00 in 39 W/m2
19:24 48.6 °F 44.9 °F 30.02 in NNE 17.0 mph 25.0 mph 87% 0.00 in 32 W/m2
19:29 48.4 °F 44.7 °F 30.02 in North 13.0 mph 25.0 mph 87% 0.00 in 40 W/m2
19:34 48.4 °F 44.7 °F 30.02 in North 20.0 mph 25.0 mph 87% 0.00 in 25 W/m2
19:39 48.3 °F 44.6 °F 30.02 in NNE 13.0 mph 24.0 mph 87% 0.00 in 25 W/m2
19:44 48.3 °F 44.9 °F 30.02 in North 14.0 mph 23.0 mph 88% 0.00 in 25 W/m2
19:49 48.2 °F 44.8 °F 30.02 in North 11.0 mph 22.0 mph 88% 0.00 in 19 W/m2
19:54 47.9 °F 44.5 °F 30.02 in NNE 19.0 mph 27.0 mph 88% 0.00 in 21 W/m2
19:59 47.6 °F 44.5 °F 30.03 in NNE 18.0 mph 27.0 mph 89% 0.00 in 25 W/m2
20:04 47.6 °F 44.5 °F 30.03 in North 19.0 mph 23.0 mph 89% 0.00 in 14 W/m2
20:09 47.6 °F 44.5 °F 30.02 in NNE 14.0 mph 23.0 mph 89% 0.00 in 18 W/m2
20:14 47.5 °F 44.4 °F 30.03 in North 15.0 mph 23.0 mph 89% 0.00 in 14 W/m2
20:19 47.4 °F 44.6 °F 30.03 in NNE 11.0 mph 23.0 mph 90% 0.00 in 18 W/m2
20:24 47.3 °F 44.5 °F 30.03 in North 17.0 mph 23.0 mph 90% 0.00 in 14 W/m2
20:29 47.2 °F 44.4 °F 30.03 in North 20.0 mph 23.0 mph 90% 0.00 in 7 W/m2
20:34 47.1 °F 44.3 °F 30.03 in North 16.0 mph 30.0 mph 90% 0.00 in 5 W/m2
20:39 47.1 °F 44.3 °F 30.03 in North 19.0 mph 30.0 mph 90% 0.00 in 7 W/m2
20:44 47.1 °F 44.3 °F 30.04 in North 20.0 mph 26.0 mph 90% 0.00 in 9 W/m2
20:49 47.1 °F 44.3 °F 30.04 in North 17.0 mph 26.0 mph 90% 0.00 in 7 W/m2
20:54 47.1 °F 44.0 °F 30.04 in NNE 14.0 mph 22.0 mph 89% 0.00 in 5 W/m2
20:59 47.2 °F 44.1 °F 30.04 in North 15.0 mph 22.0 mph 89% 0.00 in 0 W/m2
21:04 47.3 °F 44.2 °F 30.05 in NNE 11.0 mph 20.0 mph 89% 0.00 in 0 W/m2
21:09 47.3 °F 44.2 °F 30.05 in NNE 15.0 mph 22.0 mph 89% 0.00 in 0 W/m2
21:14 47.3 °F 44.2 °F 30.05 in North 18.0 mph 25.0 mph 89% 0.00 in 0 W/m2
21:19 47.3 °F 44.2 °F 30.05 in NNE 18.0 mph 25.0 mph 89% 0.00 in 0 W/m2
21:24 47.2 °F 44.1 °F 30.05 in NNE 14.0 mph 23.0 mph 89% 0.00 in 0 W/m2
21:29 47.3 °F 44.2 °F 30.06 in North 13.0 mph 22.0 mph 89% 0.00 in 0 W/m2
21:34 47.3 °F 44.2 °F 30.07 in North 10.0 mph 22.0 mph 89% 0.00 in 0 W/m2
21:39 47.3 °F 43.9 °F 30.08 in North 11.0 mph 20.0 mph 88% 0.00 in 0 W/m2
21:44 47.4 °F 44.0 °F 30.08 in North 15.0 mph 19.0 mph 88% 0.00 in 0 W/m2
21:49 47.5 °F 44.1 °F 30.08 in NNW 15.0 mph 20.0 mph 88% 0.00 in 0 W/m2
21:54 47.5 °F 43.8 °F 30.09 in NNE 17.0 mph 23.0 mph 87% 0.00 in 0 W/m2
21:59 47.5 °F 43.8 °F 30.10 in NNE 8.0 mph 23.0 mph 87% 0.00 in 0 W/m2
22:04 47.6 °F 43.6 °F 30.11 in NNW 9.0 mph 20.0 mph 86% 0.00 in 0 W/m2
22:09 47.6 °F 43.6 °F 30.11 in North 13.0 mph 20.0 mph 86% 0.00 in 0 W/m2
22:14 47.5 °F 43.5 °F 30.11 in NNE 13.0 mph 20.0 mph 86% 0.00 in 0 W/m2
22:19 47.5 °F 43.5 °F 30.09 in NNE 22.0 mph 22.0 mph 86% 0.00 in 0 W/m2
22:24 47.4 °F 43.4 °F 30.08 in NE 22.0 mph 24.0 mph 86% 0.00 in 0 W/m2
22:29 47.4 °F 43.4 °F 30.09 in NNE 12.0 mph 24.0 mph 86% 0.00 in 0 W/m2
22:34 47.2 °F 43.2 °F 30.10 in NNE 8.0 mph 23.0 mph 86% 0.00 in 0 W/m2
22:39 47.0 °F 43.0 °F 30.10 in North 14.0 mph 18.0 mph 86% 0.00 in 0 W/m2
22:44 46.9 °F 42.9 °F 30.10 in NNE 11.0 mph 18.0 mph 86% 0.00 in 0 W/m2
22:49 46.8 °F 43.1 °F 30.11 in NNE 11.0 mph 18.0 mph 87% 0.00 in 0 W/m2
22:54 46.7 °F 43.0 °F 30.11 in NNE 10.0 mph 16.0 mph 87% 0.00 in 0 W/m2
22:59 46.6 °F 42.9 °F 30.12 in NNE 10.0 mph 16.0 mph 87% 0.00 in 0 W/m2
23:04 46.7 °F 43.0 °F 30.13 in NNE 9.0 mph 15.0 mph 87% 0.00 in 0 W/m2
23:09 46.6 °F 42.9 °F 30.13 in NNE 7.0 mph 15.0 mph 87% 0.00 in 0 W/m2
23:14 46.6 °F 42.9 °F 30.13 in North 9.0 mph 15.0 mph 87% 0.00 in 0 W/m2
23:19 46.6 °F 42.9 °F 30.14 in North 5.0 mph 10.0 mph 87% 0.00 in 0 W/m2
23:24 46.5 °F 43.1 °F 30.14 in North 8.0 mph 9.0 mph 88% 0.00 in 0 W/m2
23:29 46.5 °F 43.1 °F 30.13 in NNW 9.0 mph 9.0 mph 88% 0.00 in 0 W/m2
23:34 46.4 °F 43.0 °F 30.13 in North 7.0 mph 9.0 mph 88% 0.00 in 0 W/m2
23:39 46.4 °F 43.0 °F 30.13 in NNW 5.0 mph 9.0 mph 88% 0.00 in 0 W/m2
23:44 46.2 °F 43.1 °F 30.13 in North 5.0 mph 9.0 mph 89% 0.00 in 0 W/m2
23:49 46.2 °F 43.1 °F 30.13 in North 7.0 mph 9.0 mph 89% 0.00 in 0 W/m2
23:54 46.1 °F 43.0 °F 30.13 in NNW 5.0 mph 9.0 mph 89% 0.00 in 0 W/m2
23:57 46.1 °F 43.0 °F 30.13 in NNW 4.0 mph 9.0 mph 89% 0.00 in 0 W/m2
Bismarck, North Dakota, USA
Compliments of Weather Underground - 4 mb